sensor_id;sensor_type;location;lat;lon;timestamp;temperature;humidity
78775;DHT22;68119;43.398;3.676;2023-08-21T00:01:09;26.50;60.80
78775;DHT22;68119;43.398;3.676;2023-08-21T00:03:35;26.50;61.00
78775;DHT22;68119;43.398;3.676;2023-08-21T00:06:03;26.40;60.90
78775;DHT22;68119;43.398;3.676;2023-08-21T00:08:32;26.40;60.80
78775;DHT22;68119;43.398;3.676;2023-08-21T00:11:00;26.40;61.10
78775;DHT22;68119;43.398;3.676;2023-08-21T00:13:29;26.40;60.40
78775;DHT22;68119;43.398;3.676;2023-08-21T00:15:57;26.40;60.30
78775;DHT22;68119;43.398;3.676;2023-08-21T00:18:26;26.50;60.50
78775;DHT22;68119;43.398;3.676;2023-08-21T00:20:52;26.40;60.70
78775;DHT22;68119;43.398;3.676;2023-08-21T00:23:24;26.40;60.80
78775;DHT22;68119;43.398;3.676;2023-08-21T00:25:55;26.40;60.90
78775;DHT22;68119;43.398;3.676;2023-08-21T00:28:23;26.40;60.80
78775;DHT22;68119;43.398;3.676;2023-08-21T00:30:50;26.40;61.10
78775;DHT22;68119;43.398;3.676;2023-08-21T00:33:15;26.50;61.10
78775;DHT22;68119;43.398;3.676;2023-08-21T00:35:42;26.50;60.90
78775;DHT22;68119;43.398;3.676;2023-08-21T00:38:10;26.50;61.50
78775;DHT22;68119;43.398;3.676;2023-08-21T00:40:36;26.50;62.80
78775;DHT22;68119;43.398;3.676;2023-08-21T00:43:07;26.40;63.50
78775;DHT22;68119;43.398;3.676;2023-08-21T00:45:42;26.40;66.50
78775;DHT22;68119;43.398;3.676;2023-08-21T00:48:11;26.30;67.80
78775;DHT22;68119;43.398;3.676;2023-08-21T00:50:37;26.20;68.10
78775;DHT22;68119;43.398;3.676;2023-08-21T00:53:07;26.10;68.60
78775;DHT22;68119;43.398;3.676;2023-08-21T00:55:35;26.10;70.50
78775;DHT22;68119;43.398;3.676;2023-08-21T00:58:01;26.00;70.70
78775;DHT22;68119;43.398;3.676;2023-08-21T01:00:29;26.00;71.70
78775;DHT22;68119;43.398;3.676;2023-08-21T01:02:55;26.00;73.00
78775;DHT22;68119;43.398;3.676;2023-08-21T01:05:21;25.90;73.40
78775;DHT22;68119;43.398;3.676;2023-08-21T01:07:51;25.80;75.00
78775;DHT22;68119;43.398;3.676;2023-08-21T01:11:06;25.80;75.80
78775;DHT22;68119;43.398;3.676;2023-08-21T01:13:13;25.60;76.80
78775;DHT22;68119;43.398;3.676;2023-08-21T01:15:47;25.60;76.80
78775;DHT22;68119;43.398;3.676;2023-08-21T01:18:19;25.50;76.80
78775;DHT22;68119;43.398;3.676;2023-08-21T01:20:48;25.60;77.00
78775;DHT22;68119;43.398;3.676;2023-08-21T01:23:26;25.50;76.90
78775;DHT22;68119;43.398;3.676;2023-08-21T01:25:54;25.50;77.00
78775;DHT22;68119;43.398;3.676;2023-08-21T01:28:20;25.40;77.20
78775;DHT22;68119;43.398;3.676;2023-08-21T01:30:50;25.30;77.50
78775;DHT22;68119;43.398;3.676;2023-08-21T01:33:19;25.20;77.50
78775;DHT22;68119;43.398;3.676;2023-08-21T01:35:45;25.10;77.80
78775;DHT22;68119;43.398;3.676;2023-08-21T01:38:11;25.00;78.00
78775;DHT22;68119;43.398;3.676;2023-08-21T01:40:39;25.00;78.20
78775;DHT22;68119;43.398;3.676;2023-08-21T01:43:14;25.00;78.40
78775;DHT22;68119;43.398;3.676;2023-08-21T01:45:42;25.00;78.50
78775;DHT22;68119;43.398;3.676;2023-08-21T01:48:08;25.00;78.50
78775;DHT22;68119;43.398;3.676;2023-08-21T01:50:34;25.00;78.50
78775;DHT22;68119;43.398;3.676;2023-08-21T01:53:02;24.90;78.20
78775;DHT22;68119;43.398;3.676;2023-08-21T01:55:28;24.80;78.00
78775;DHT22;68119;43.398;3.676;2023-08-21T01:57:54;24.70;77.90
78775;DHT22;68119;43.398;3.676;2023-08-21T02:00:23;24.70;77.80
78775;DHT22;68119;43.398;3.676;2023-08-21T02:02:50;24.60;78.00
78775;DHT22;68119;43.398;3.676;2023-08-21T02:05:15;24.50;78.10
78775;DHT22;68119;43.398;3.676;2023-08-21T02:07:41;24.40;77.60
78775;DHT22;68119;43.398;3.676;2023-08-21T02:10:08;24.40;77.30
78775;DHT22;68119;43.398;3.676;2023-08-21T02:12:36;24.40;76.90
78775;DHT22;68119;43.398;3.676;2023-08-21T02:15:04;24.30;76.90
78775;DHT22;68119;43.398;3.676;2023-08-21T02:17:30;24.20;76.70
78775;DHT22;68119;43.398;3.676;2023-08-21T02:19:56;24.00;76.80
78775;DHT22;68119;43.398;3.676;2023-08-21T02:22:25;24.00;77.00
78775;DHT22;68119;43.398;3.676;2023-08-21T02:24:51;24.00;76.70
78775;DHT22;68119;43.398;3.676;2023-08-21T02:27:20;24.00;76.30
78775;DHT22;68119;43.398;3.676;2023-08-21T02:29:49;24.00;76.60
78775;DHT22;68119;43.398;3.676;2023-08-21T02:32:15;24.00;76.70
78775;DHT22;68119;43.398;3.676;2023-08-21T02:34:46;24.00;76.80
78775;DHT22;68119;43.398;3.676;2023-08-21T02:37:12;24.20;77.30
78775;DHT22;68119;43.398;3.676;2023-08-21T02:39:41;24.20;77.70
78775;DHT22;68119;43.398;3.676;2023-08-21T02:42:07;24.20;78.40
78775;DHT22;68119;43.398;3.676;2023-08-21T02:44:33;24.20;78.40
78775;DHT22;68119;43.398;3.676;2023-08-21T02:47:01;24.20;78.10
78775;DHT22;68119;43.398;3.676;2023-08-21T02:49:29;24.20;78.00
78775;DHT22;68119;43.398;3.676;2023-08-21T02:51:56;24.20;78.70
78775;DHT22;68119;43.398;3.676;2023-08-21T02:54:27;24.20;79.00
78775;DHT22;68119;43.398;3.676;2023-08-21T02:56:55;24.30;78.30
78775;DHT22;68119;43.398;3.676;2023-08-21T02:59:23;24.20;78.20
78775;DHT22;68119;43.398;3.676;2023-08-21T03:01:52;24.20;78.20
78775;DHT22;68119;43.398;3.676;2023-08-21T03:04:20;24.20;78.20
78775;DHT22;68119;43.398;3.676;2023-08-21T03:06:49;24.10;78.10
78775;DHT22;68119;43.398;3.676;2023-08-21T03:09:15;24.00;78.00
78775;DHT22;68119;43.398;3.676;2023-08-21T03:11:41;24.00;78.20
78775;DHT22;68119;43.398;3.676;2023-08-21T03:14:09;24.00;78.30
78775;DHT22;68119;43.398;3.676;2023-08-21T03:16:39;24.00;78.40
78775;DHT22;68119;43.398;3.676;2023-08-21T03:19:08;23.90;78.90
78775;DHT22;68119;43.398;3.676;2023-08-21T03:21:37;23.90;78.90
78775;DHT22;68119;43.398;3.676;2023-08-21T03:24:10;23.90;79.00
78775;DHT22;68119;43.398;3.676;2023-08-21T03:26:38;23.90;79.20
78775;DHT22;68119;43.398;3.676;2023-08-21T03:29:04;23.90;79.20
78775;DHT22;68119;43.398;3.676;2023-08-21T03:31:30;23.90;79.30
78775;DHT22;68119;43.398;3.676;2023-08-21T03:33:56;23.80;79.50
78775;DHT22;68119;43.398;3.676;2023-08-21T03:36:22;23.80;79.30
78775;DHT22;68119;43.398;3.676;2023-08-21T03:39:00;23.80;79.20
78775;DHT22;68119;43.398;3.676;2023-08-21T03:41:26;23.80;79.00
78775;DHT22;68119;43.398;3.676;2023-08-21T03:43:57;23.90;79.00
78775;DHT22;68119;43.398;3.676;2023-08-21T03:46:23;23.90;79.00
78775;DHT22;68119;43.398;3.676;2023-08-21T03:48:53;23.90;78.70
78775;DHT22;68119;43.398;3.676;2023-08-21T03:51:21;23.90;78.70
78775;DHT22;68119;43.398;3.676;2023-08-21T03:53:52;23.90;78.70
78775;DHT22;68119;43.398;3.676;2023-08-21T03:56:18;23.90;78.60
78775;DHT22;68119;43.398;3.676;2023-08-21T03:58:47;23.90;78.40
78775;DHT22;68119;43.398;3.676;2023-08-21T04:01:13;23.90;78.30
78775;DHT22;68119;43.398;3.676;2023-08-21T04:03:39;23.90;78.10
78775;DHT22;68119;43.398;3.676;2023-08-21T04:06:10;24.00;77.90
78775;DHT22;68119;43.398;3.676;2023-08-21T04:08:36;24.00;77.80
78775;DHT22;68119;43.398;3.676;2023-08-21T04:11:05;24.00;77.70
78775;DHT22;68119;43.398;3.676;2023-08-21T04:13:34;24.00;77.50
78775;DHT22;68119;43.398;3.676;2023-08-21T04:16:06;24.00;77.10
78775;DHT22;68119;43.398;3.676;2023-08-21T04:18:31;24.00;77.10
78775;DHT22;68119;43.398;3.676;2023-08-21T04:20:57;24.00;76.90
78775;DHT22;68119;43.398;3.676;2023-08-21T04:23:29;24.00;76.90
78775;DHT22;68119;43.398;3.676;2023-08-21T04:26:04;24.00;76.30
78775;DHT22;68119;43.398;3.676;2023-08-21T04:28:30;24.00;76.10
78775;DHT22;68119;43.398;3.676;2023-08-21T04:30:56;24.00;75.80
78775;DHT22;68119;43.398;3.676;2023-08-21T04:33:24;24.00;75.50
78775;DHT22;68119;43.398;3.676;2023-08-21T04:35:53;24.10;75.40
78775;DHT22;68119;43.398;3.676;2023-08-21T04:38:19;24.00;74.90
78775;DHT22;68119;43.398;3.676;2023-08-21T04:40:47;24.00;74.50
78775;DHT22;68119;43.398;3.676;2023-08-21T04:43:16;24.10;74.30
78775;DHT22;68119;43.398;3.676;2023-08-21T04:45:46;24.10;74.50
78775;DHT22;68119;43.398;3.676;2023-08-21T04:48:15;24.00;74.40
78775;DHT22;68119;43.398;3.676;2023-08-21T04:50:47;23.90;74.50
78775;DHT22;68119;43.398;3.676;2023-08-21T04:53:13;23.80;74.30
78775;DHT22;68119;43.398;3.676;2023-08-21T04:55:39;23.80;74.40
78775;DHT22;68119;43.398;3.676;2023-08-21T04:58:06;23.80;74.30
78775;DHT22;68119;43.398;3.676;2023-08-21T05:00:32;23.80;74.30
78775;DHT22;68119;43.398;3.676;2023-08-21T05:03:05;23.80;74.10
78775;DHT22;68119;43.398;3.676;2023-08-21T05:05:31;23.80;74.20
78775;DHT22;68119;43.398;3.676;2023-08-21T05:07:59;23.80;73.90
78775;DHT22;68119;43.398;3.676;2023-08-21T05:10:25;23.80;73.60
78775;DHT22;68119;43.398;3.676;2023-08-21T05:12:57;23.80;73.70
78775;DHT22;68119;43.398;3.676;2023-08-21T05:15:26;23.80;73.40
78775;DHT22;68119;43.398;3.676;2023-08-21T05:17:54;23.90;73.50
78775;DHT22;68119;43.398;3.676;2023-08-21T05:20:20;23.90;73.10
78775;DHT22;68119;43.398;3.676;2023-08-21T05:22:49;24.00;72.50
78775;DHT22;68119;43.398;3.676;2023-08-21T05:25:15;24.00;72.40
78775;DHT22;68119;43.398;3.676;2023-08-21T05:27:41;24.00;72.10
78775;DHT22;68119;43.398;3.676;2023-08-21T05:30:09;24.00;72.50
78775;DHT22;68119;43.398;3.676;2023-08-21T05:32:41;24.00;71.90
78775;DHT22;68119;43.398;3.676;2023-08-21T05:35:09;24.00;71.80
78775;DHT22;68119;43.398;3.676;2023-08-21T05:37:38;24.00;71.80
78775;DHT22;68119;43.398;3.676;2023-08-21T05:40:04;24.10;71.70
78775;DHT22;68119;43.398;3.676;2023-08-21T05:42:33;24.10;71.10
78775;DHT22;68119;43.398;3.676;2023-08-21T05:44:59;24.20;71.40
78775;DHT22;68119;43.398;3.676;2023-08-21T05:47:27;24.10;71.50
78775;DHT22;68119;43.398;3.676;2023-08-21T05:49:53;24.10;70.80
78775;DHT22;68119;43.398;3.676;2023-08-21T05:52:22;24.20;70.80
78775;DHT22;68119;43.398;3.676;2023-08-21T05:54:48;24.20;70.50
78775;DHT22;68119;43.398;3.676;2023-08-21T05:57:17;24.20;70.00
78775;DHT22;68119;43.398;3.676;2023-08-21T05:59:43;24.20;70.30
78775;DHT22;68119;43.398;3.676;2023-08-21T06:02:10;24.20;69.80
78775;DHT22;68119;43.398;3.676;2023-08-21T06:04:37;24.20;69.60
78775;DHT22;68119;43.398;3.676;2023-08-21T06:07:03;24.40;69.40
78775;DHT22;68119;43.398;3.676;2023-08-21T06:09:29;24.40;69.80
78775;DHT22;68119;43.398;3.676;2023-08-21T06:11:59;24.50;69.50
78775;DHT22;68119;43.398;3.676;2023-08-21T06:14:28;24.50;68.20
78775;DHT22;68119;43.398;3.676;2023-08-21T06:16:58;24.60;68.30
78775;DHT22;68119;43.398;3.676;2023-08-21T06:19:27;24.70;67.00
78775;DHT22;68119;43.398;3.676;2023-08-21T06:21:53;24.80;67.60
78775;DHT22;68119;43.398;3.676;2023-08-21T06:24:23;25.00;66.80
78775;DHT22;68119;43.398;3.676;2023-08-21T06:26:50;25.00;66.00
78775;DHT22;68119;43.398;3.676;2023-08-21T06:29:17;25.20;65.00
78775;DHT22;68119;43.398;3.676;2023-08-21T06:31:46;25.30;64.20
78775;DHT22;68119;43.398;3.676;2023-08-21T06:34:15;25.40;63.40
78775;DHT22;68119;43.398;3.676;2023-08-21T06:36:49;25.60;61.70
78775;DHT22;68119;43.398;3.676;2023-08-21T06:39:18;25.90;60.20
78775;DHT22;68119;43.398;3.676;2023-08-21T06:41:46;26.10;59.90
78775;DHT22;68119;43.398;3.676;2023-08-21T06:44:12;26.20;59.30
78775;DHT22;68119;43.398;3.676;2023-08-21T06:46:38;26.40;59.60
78775;DHT22;68119;43.398;3.676;2023-08-21T06:49:06;26.50;59.00
78775;DHT22;68119;43.398;3.676;2023-08-21T06:51:32;26.70;58.50
78775;DHT22;68119;43.398;3.676;2023-08-21T06:54:04;26.80;57.90
78775;DHT22;68119;43.398;3.676;2023-08-21T06:56:30;27.10;57.10
78775;DHT22;68119;43.398;3.676;2023-08-21T06:58:55;27.30;56.50
78775;DHT22;68119;43.398;3.676;2023-08-21T07:01:24;27.50;56.90
78775;DHT22;68119;43.398;3.676;2023-08-21T07:03:50;27.70;55.50
78775;DHT22;68119;43.398;3.676;2023-08-21T07:06:19;27.80;55.50
78775;DHT22;68119;43.398;3.676;2023-08-21T07:08:48;28.10;54.70
78775;DHT22;68119;43.398;3.676;2023-08-21T07:11:14;28.30;54.50
78775;DHT22;68119;43.398;3.676;2023-08-21T07:13:43;28.30;54.60
78775;DHT22;68119;43.398;3.676;2023-08-21T07:16:11;28.30;54.90
78775;DHT22;68119;43.398;3.676;2023-08-21T07:18:37;28.30;54.80
78775;DHT22;68119;43.398;3.676;2023-08-21T07:21:06;28.40;54.50
78775;DHT22;68119;43.398;3.676;2023-08-21T07:23:35;28.50;53.50
78775;DHT22;68119;43.398;3.676;2023-08-21T07:26:00;28.60;53.70
78775;DHT22;68119;43.398;3.676;2023-08-21T07:28:32;28.70;53.40
78775;DHT22;68119;43.398;3.676;2023-08-21T07:31:01;28.90;52.70
78775;DHT22;68119;43.398;3.676;2023-08-21T07:33:29;29.00;52.10
78775;DHT22;68119;43.398;3.676;2023-08-21T07:36:02;29.10;52.50
78775;DHT22;68119;43.398;3.676;2023-08-21T07:38:31;29.20;52.50
78775;DHT22;68119;43.398;3.676;2023-08-21T07:41:07;29.30;52.70
78775;DHT22;68119;43.398;3.676;2023-08-21T07:43:39;29.50;52.10
78775;DHT22;68119;43.398;3.676;2023-08-21T07:46:07;29.60;52.10
78775;DHT22;68119;43.398;3.676;2023-08-21T07:48:47;29.70;52.10
78775;DHT22;68119;43.398;3.676;2023-08-21T07:51:16;29.90;51.50
78775;DHT22;68119;43.398;3.676;2023-08-21T07:53:52;30.00;51.60
78775;DHT22;68119;43.398;3.676;2023-08-21T07:56:18;30.10;51.50
78775;DHT22;68119;43.398;3.676;2023-08-21T07:58:47;30.10;51.30
78775;DHT22;68119;43.398;3.676;2023-08-21T08:01:19;30.20;51.50
78775;DHT22;68119;43.398;3.676;2023-08-21T08:03:47;30.30;51.20
78775;DHT22;68119;43.398;3.676;2023-08-21T08:06:16;30.30;50.80
78775;DHT22;68119;43.398;3.676;2023-08-21T08:08:47;30.50;50.90
78775;DHT22;68119;43.398;3.676;2023-08-21T08:11:16;30.50;51.10
78775;DHT22;68119;43.398;3.676;2023-08-21T08:13:42;30.60;50.90
78775;DHT22;68119;43.398;3.676;2023-08-21T08:16:10;30.70;51.00
78775;DHT22;68119;43.398;3.676;2023-08-21T08:18:42;30.70;51.10
78775;DHT22;68119;43.398;3.676;2023-08-21T08:21:08;30.90;51.00
78775;DHT22;68119;43.398;3.676;2023-08-21T08:23:37;31.00;51.20
78775;DHT22;68119;43.398;3.676;2023-08-21T08:26:03;31.00;50.80
78775;DHT22;68119;43.398;3.676;2023-08-21T08:28:29;31.20;50.80
78775;DHT22;68119;43.398;3.676;2023-08-21T08:31:01;31.00;50.90
78775;DHT22;68119;43.398;3.676;2023-08-21T08:33:27;30.90;51.10
78775;DHT22;68119;43.398;3.676;2023-08-21T08:35:56;31.00;51.20
78775;DHT22;68119;43.398;3.676;2023-08-21T08:38:25;31.10;50.60
78775;DHT22;68119;43.398;3.676;2023-08-21T08:40:55;31.10;50.70
78775;DHT22;68119;43.398;3.676;2023-08-21T08:43:27;31.30;50.60
78775;DHT22;68119;43.398;3.676;2023-08-21T08:45:56;31.20;50.70
78775;DHT22;68119;43.398;3.676;2023-08-21T08:48:23;31.40;50.70
78775;DHT22;68119;43.398;3.676;2023-08-21T08:50:50;31.50;50.50
78775;DHT22;68119;43.398;3.676;2023-08-21T08:53:16;31.60;50.20
78775;DHT22;68119;43.398;3.676;2023-08-21T08:55:48;31.80;49.80
78775;DHT22;68119;43.398;3.676;2023-08-21T08:58:17;32.00;50.00
78775;DHT22;68119;43.398;3.676;2023-08-21T09:00:43;32.20;49.50
78775;DHT22;68119;43.398;3.676;2023-08-21T09:03:11;32.20;49.40
78775;DHT22;68119;43.398;3.676;2023-08-21T09:05:40;32.20;49.30
78775;DHT22;68119;43.398;3.676;2023-08-21T09:10:41;32.20;49.90
78775;DHT22;68119;43.398;3.676;2023-08-21T09:13:16;32.30;49.80
78775;DHT22;68119;43.398;3.676;2023-08-21T09:15:46;32.50;49.10
78775;DHT22;68119;43.398;3.676;2023-08-21T09:18:17;32.70;48.60
78775;DHT22;68119;43.398;3.676;2023-08-21T09:20:43;32.80;48.00
78775;DHT22;68119;43.398;3.676;2023-08-21T09:23:18;33.00;48.10
78775;DHT22;68119;43.398;3.676;2023-08-21T09:25:49;33.00;47.70
78775;DHT22;68119;43.398;3.676;2023-08-21T09:28:24;33.00;47.60
78775;DHT22;68119;43.398;3.676;2023-08-21T09:30:51;33.00;47.50
78775;DHT22;68119;43.398;3.676;2023-08-21T09:33:18;32.80;47.60
78775;DHT22;68119;43.398;3.676;2023-08-21T09:35:44;32.80;47.50
78775;DHT22;68119;43.398;3.676;2023-08-21T09:38:10;32.70;47.50
78775;DHT22;68119;43.398;3.676;2023-08-21T09:40:43;32.60;48.30
78775;DHT22;68119;43.398;3.676;2023-08-21T09:43:17;32.60;48.20
78775;DHT22;68119;43.398;3.676;2023-08-21T09:45:47;32.60;48.30
78775;DHT22;68119;43.398;3.676;2023-08-21T09:48:19;32.50;48.40
78775;DHT22;68119;43.398;3.676;2023-08-21T09:50:50;32.60;48.60
78775;DHT22;68119;43.398;3.676;2023-08-21T09:53:20;32.60;48.60
78775;DHT22;68119;43.398;3.676;2023-08-21T09:55:48;32.80;48.30
78775;DHT22;68119;43.398;3.676;2023-08-21T09:58:18;32.80;49.60
78775;DHT22;68119;43.398;3.676;2023-08-21T10:00:44;32.60;50.40
78775;DHT22;68119;43.398;3.676;2023-08-21T10:03:11;32.50;50.50
78775;DHT22;68119;43.398;3.676;2023-08-21T10:05:38;32.50;50.70
78775;DHT22;68119;43.398;3.676;2023-08-21T10:08:07;32.50;50.90
78775;DHT22;68119;43.398;3.676;2023-08-21T10:10:37;32.60;50.90
78775;DHT22;68119;43.398;3.676;2023-08-21T10:13:03;32.70;51.20
78775;DHT22;68119;43.398;3.676;2023-08-21T10:15:32;32.60;50.50
78775;DHT22;68119;43.398;3.676;2023-08-21T10:23:37;32.80;51.30
78775;DHT22;68119;43.398;3.676;2023-08-21T10:26:07;32.90;51.70
78775;DHT22;68119;43.398;3.676;2023-08-21T10:28:44;33.00;51.60
78775;DHT22;68119;43.398;3.676;2023-08-21T10:34:04;33.10;51.40
78775;DHT22;68119;43.398;3.676;2023-08-21T10:39:03;33.20;50.50
78775;DHT22;68119;43.398;3.676;2023-08-21T10:41:29;33.20;50.20
78775;DHT22;68119;43.398;3.676;2023-08-21T10:43:55;33.20;49.60
78775;DHT22;68119;43.398;3.676;2023-08-21T10:46:23;33.40;49.60
78775;DHT22;68119;43.398;3.676;2023-08-21T10:48:52;33.60;49.70
78775;DHT22;68119;43.398;3.676;2023-08-21T15:30:09;33.20;46.40
78775;DHT22;68119;43.398;3.676;2023-08-21T15:32:35;33.00;47.60
78775;DHT22;68119;43.398;3.676;2023-08-21T15:35:03;32.90;48.10
78775;DHT22;68119;43.398;3.676;2023-08-21T15:37:30;32.90;48.20
78775;DHT22;68119;43.398;3.676;2023-08-21T15:39:56;33.00;48.90
78775;DHT22;68119;43.398;3.676;2023-08-21T15:42:22;33.40;48.80
78775;DHT22;68119;43.398;3.676;2023-08-21T15:44:48;33.30;48.80
78775;DHT22;68119;43.398;3.676;2023-08-21T15:47:14;33.20;49.00
78775;DHT22;68119;43.398;3.676;2023-08-21T15:49:40;33.10;49.40
78775;DHT22;68119;43.398;3.676;2023-08-21T15:52:05;33.30;49.70
78775;DHT22;68119;43.398;3.676;2023-08-21T15:54:37;33.40;50.10
78775;DHT22;68119;43.398;3.676;2023-08-21T15:57:10;33.60;50.40
78775;DHT22;68119;43.398;3.676;2023-08-21T15:59:41;34.00;50.30
78775;DHT22;68119;43.398;3.676;2023-08-21T16:02:08;34.00;50.80
78775;DHT22;68119;43.398;3.676;2023-08-21T16:04:39;33.00;51.70
78775;DHT22;68119;43.398;3.676;2023-08-21T16:07:05;33.00;52.30
78775;DHT22;68119;43.398;3.676;2023-08-21T16:09:33;33.40;50.50
78775;DHT22;68119;43.398;3.676;2023-08-21T16:12:04;33.70;50.20
78775;DHT22;68119;43.398;3.676;2023-08-21T16:14:33;34.40;49.60
78775;DHT22;68119;43.398;3.676;2023-08-21T16:16:59;34.70;48.50
78775;DHT22;68119;43.398;3.676;2023-08-21T16:19:27;34.70;49.50
78775;DHT22;68119;43.398;3.676;2023-08-21T16:21:55;34.50;48.80
78775;DHT22;68119;43.398;3.676;2023-08-21T16:31:46;33.40;50.80
78775;DHT22;68119;43.398;3.676;2023-08-21T16:34:15;31.80;54.20
78775;DHT22;68119;43.398;3.676;2023-08-21T16:36:41;31.30;55.60
78775;DHT22;68119;43.398;3.676;2023-08-21T16:39:09;31.10;55.60
78775;DHT22;68119;43.398;3.676;2023-08-21T16:41:35;31.30;55.40
78775;DHT22;68119;43.398;3.676;2023-08-21T16:44:03;31.40;53.50
78775;DHT22;68119;43.398;3.676;2023-08-21T16:46:29;31.70;52.70
78775;DHT22;68119;43.398;3.676;2023-08-21T16:48:58;31.40;54.00
78775;DHT22;68119;43.398;3.676;2023-08-21T16:51:27;31.10;55.00
78775;DHT22;68119;43.398;3.676;2023-08-21T16:53:53;31.30;55.20
78775;DHT22;68119;43.398;3.676;2023-08-21T16:56:22;31.40;54.90
78775;DHT22;68119;43.398;3.676;2023-08-21T16:58:48;31.20;54.70
78775;DHT22;68119;43.398;3.676;2023-08-21T17:01:13;31.10;55.20
78775;DHT22;68119;43.398;3.676;2023-08-21T17:03:39;30.70;55.50
78775;DHT22;68119;43.398;3.676;2023-08-21T17:06:05;30.30;56.80
78775;DHT22;68119;43.398;3.676;2023-08-21T17:08:31;30.00;57.30
78775;DHT22;68119;43.398;3.676;2023-08-21T17:10:59;29.90;57.70
78775;DHT22;68119;43.398;3.676;2023-08-21T17:13:25;29.70;58.50
78775;DHT22;68119;43.398;3.676;2023-08-21T17:15:54;29.70;58.90
78775;DHT22;68119;43.398;3.676;2023-08-21T17:18:21;29.50;59.50
78775;DHT22;68119;43.398;3.676;2023-08-21T17:20:50;29.40;60.20
78775;DHT22;68119;43.398;3.676;2023-08-21T17:23:16;29.70;59.70
78775;DHT22;68119;43.398;3.676;2023-08-21T17:25:42;29.90;59.70
78775;DHT22;68119;43.398;3.676;2023-08-21T17:28:08;30.00;59.30
78775;DHT22;68119;43.398;3.676;2023-08-21T17:30:34;30.00;59.20
78775;DHT22;68119;43.398;3.676;2023-08-21T17:33:03;30.10;59.30
78775;DHT22;68119;43.398;3.676;2023-08-21T17:35:32;30.00;59.40
78775;DHT22;68119;43.398;3.676;2023-08-21T17:38:01;29.90;60.20
78775;DHT22;68119;43.398;3.676;2023-08-21T17:40:27;30.00;60.00
78775;DHT22;68119;43.398;3.676;2023-08-21T17:42:56;29.50;60.80
78775;DHT22;68119;43.398;3.676;2023-08-21T17:45:22;29.50;60.90
78775;DHT22;68119;43.398;3.676;2023-08-21T17:47:51;29.40;61.30
78775;DHT22;68119;43.398;3.676;2023-08-21T17:50:17;29.20;61.80
78775;DHT22;68119;43.398;3.676;2023-08-21T17:52:45;28.90;62.20
78775;DHT22;68119;43.398;3.676;2023-08-21T17:55:11;28.40;63.90
78775;DHT22;68119;43.398;3.676;2023-08-21T17:57:40;28.20;64.70
78775;DHT22;68119;43.398;3.676;2023-08-21T18:00:09;28.20;65.00
78775;DHT22;68119;43.398;3.676;2023-08-21T18:02:36;28.30;64.80
78775;DHT22;68119;43.398;3.676;2023-08-21T18:05:04;28.10;65.70
78775;DHT22;68119;43.398;3.676;2023-08-21T18:07:35;28.00;66.10
78775;DHT22;68119;43.398;3.676;2023-08-21T18:10:04;27.90;66.40
78775;DHT22;68119;43.398;3.676;2023-08-21T18:12:36;27.80;67.10
78775;DHT22;68119;43.398;3.676;2023-08-21T18:15:02;27.50;67.90
78775;DHT22;68119;43.398;3.676;2023-08-21T18:17:32;27.50;68.40
78775;DHT22;68119;43.398;3.676;2023-08-21T18:19:58;27.30;68.80
78775;DHT22;68119;43.398;3.676;2023-08-21T18:22:26;27.00;69.80
78775;DHT22;68119;43.398;3.676;2023-08-21T18:24:52;26.90;70.10
78775;DHT22;68119;43.398;3.676;2023-08-21T18:27:21;27.00;70.20
78775;DHT22;68119;43.398;3.676;2023-08-21T18:29:47;27.00;70.10
78775;DHT22;68119;43.398;3.676;2023-08-21T18:32:13;26.90;70.20
78775;DHT22;68119;43.398;3.676;2023-08-21T18:34:40;26.90;70.50
78775;DHT22;68119;43.398;3.676;2023-08-21T18:37:07;26.90;70.50
78775;DHT22;68119;43.398;3.676;2023-08-21T18:39:34;26.80;70.90
78775;DHT22;68119;43.398;3.676;2023-08-21T18:42:00;26.70;71.30
78775;DHT22;68119;43.398;3.676;2023-08-21T18:44:28;26.70;70.90
78775;DHT22;68119;43.398;3.676;2023-08-21T18:46:57;26.70;71.30
78775;DHT22;68119;43.398;3.676;2023-08-21T18:49:26;26.60;71.40
78775;DHT22;68119;43.398;3.676;2023-08-21T18:51:54;26.60;71.50
78775;DHT22;68119;43.398;3.676;2023-08-21T18:54:20;26.60;71.60
78775;DHT22;68119;43.398;3.676;2023-08-21T18:56:49;26.60;71.50
78775;DHT22;68119;43.398;3.676;2023-08-21T18:59:15;26.50;71.70
78775;DHT22;68119;43.398;3.676;2023-08-21T19:01:44;26.50;72.10
78775;DHT22;68119;43.398;3.676;2023-08-21T19:04:10;26.50;72.00
78775;DHT22;68119;43.398;3.676;2023-08-21T19:06:38;26.50;71.90
78775;DHT22;68119;43.398;3.676;2023-08-21T19:09:04;26.50;72.00
78775;DHT22;68119;43.398;3.676;2023-08-21T19:11:30;26.50;72.20
78775;DHT22;68119;43.398;3.676;2023-08-21T19:13:59;26.40;72.60
78775;DHT22;68119;43.398;3.676;2023-08-21T19:16:25;26.40;72.60
78775;DHT22;68119;43.398;3.676;2023-08-21T19:18:51;26.40;72.90
78775;DHT22;68119;43.398;3.676;2023-08-21T19:21:20;26.40;73.00
78775;DHT22;68119;43.398;3.676;2023-08-21T19:23:48;26.30;73.20
78775;DHT22;68119;43.398;3.676;2023-08-21T19:26:14;26.30;73.10
78775;DHT22;68119;43.398;3.676;2023-08-21T19:28:43;26.40;73.10
78775;DHT22;68119;43.398;3.676;2023-08-21T19:31:09;26.20;73.40
78775;DHT22;68119;43.398;3.676;2023-08-21T19:33:35;26.20;73.20
78775;DHT22;68119;43.398;3.676;2023-08-21T19:36:01;26.40;72.90
78775;DHT22;68119;43.398;3.676;2023-08-21T19:38:27;26.40;72.80
78775;DHT22;68119;43.398;3.676;2023-08-21T19:40:53;26.20;72.70
78775;DHT22;68119;43.398;3.676;2023-08-21T19:43:19;26.20;72.60
78775;DHT22;68119;43.398;3.676;2023-08-21T19:45:56;26.20;72.90
78775;DHT22;68119;43.398;3.676;2023-08-21T19:48:23;26.10;72.80
78775;DHT22;68119;43.398;3.676;2023-08-21T19:50:53;26.10;72.50
78775;DHT22;68119;43.398;3.676;2023-08-21T19:53:19;26.10;72.60
78775;DHT22;68119;43.398;3.676;2023-08-21T19:55:49;26.10;72.80
78775;DHT22;68119;43.398;3.676;2023-08-21T19:58:15;26.10;73.50
78775;DHT22;68119;43.398;3.676;2023-08-21T20:00:44;26.10;73.20
78775;DHT22;68119;43.398;3.676;2023-08-21T20:03:13;26.10;72.80
78775;DHT22;68119;43.398;3.676;2023-08-21T20:05:42;26.10;73.10
78775;DHT22;68119;43.398;3.676;2023-08-21T20:08:14;26.10;73.00
78775;DHT22;68119;43.398;3.676;2023-08-21T20:10:39;26.10;73.30
78775;DHT22;68119;43.398;3.676;2023-08-21T20:13:05;26.10;72.60
78775;DHT22;68119;43.398;3.676;2023-08-21T20:15:37;26.10;72.80
78775;DHT22;68119;43.398;3.676;2023-08-21T20:18:06;26.10;72.90
78775;DHT22;68119;43.398;3.676;2023-08-21T20:20:33;26.10;73.70
78775;DHT22;68119;43.398;3.676;2023-08-21T20:22:59;26.00;73.20
78775;DHT22;68119;43.398;3.676;2023-08-21T20:25:24;26.00;73.00
78775;DHT22;68119;43.398;3.676;2023-08-21T20:27:51;26.00;73.60
78775;DHT22;68119;43.398;3.676;2023-08-21T20:30:20;26.00;73.60
78775;DHT22;68119;43.398;3.676;2023-08-21T20:32:49;25.90;74.20
78775;DHT22;68119;43.398;3.676;2023-08-21T20:35:14;25.80;73.70